Time;durP1;ratioP1;P1;durP2;ratioP2;P2;SDS_P1;SDS_P2;PMS_P1;PMS_P2;Temp;Humidity;BMP_temperature;BMP_pressure;BME280_temperature;BME280_humidity;BME280_pressure;Samples;Min_cycle;Max_cycle;Signal;HPM_P1;HPM_P2
2023/07/19 00:00:56;;;;;;;0.00;0.00;;;;;;;23.85;100.00;101386.78;10446389;28;20045;-78
2023/07/19 00:06:01;;;;;;;0.15;0.10;;;;;;;23.68;100.00;101390.63;10444415;28;20605;-78
2023/07/19 00:11:02;;;;;;;0.00;0.00;;;;;;;23.70;100.00;101378.31;10415625;28;20049;-78
2023/07/19 00:16:04;;;;;;;0.32;0.17;;;;;;;23.22;100.00;101388.94;10428449;28;20053;-78
2023/07/19 00:21:06;;;;;;;0.00;0.00;;;;;;;23.42;100.00;101397.28;10438516;28;20045;-78
2023/07/19 00:26:14;;;;;;;0.00;0.00;;;;;;;22.89;100.00;101393.91;10449747;28;20063;-78
2023/07/19 00:31:16;;;;;;;0.00;0.00;;;;;;;23.22;100.00;101383.66;10448109;28;20094;-78
2023/07/19 00:36:17;;;;;;;0.40;0.20;;;;;;;23.22;100.00;101378.41;10450117;28;20045;-78
2023/07/19 00:41:19;;;;;;;0.00;0.00;;;;;;;23.13;100.00;101385.53;10439372;28;20052;-78
2023/07/19 00:46:21;;;;;;;0.00;0.00;;;;;;;23.10;100.00;101375.09;10425980;28;20049;-78
2023/07/19 00:51:23;;;;;;;0.00;0.00;;;;;;;22.93;100.00;101371.91;10458383;28;20106;-78
2023/07/19 00:56:26;;;;;;;0.00;0.00;;;;;;;23.34;100.00;101364.16;10435329;28;20377;-78
2023/07/19 01:01:28;;;;;;;0.00;0.00;;;;;;;22.97;100.00;101376.22;10419262;28;20049;-78
2023/07/19 01:06:31;;;;;;;0.00;0.00;;;;;;;23.16;100.00;101375.88;10440224;28;20071;-78
2023/07/19 01:11:33;;;;;;;0.00;0.00;;;;;;;23.22;100.00;101370.53;10404398;28;20136;-78
2023/07/19 01:16:35;;;;;;;0.17;0.10;;;;;;;23.21;100.00;101367.03;10407759;28;20057;-78
2023/07/19 01:21:37;;;;;;;0.00;0.00;;;;;;;23.05;100.00;101371.69;10434472;28;20118;-78
2023/07/19 01:26:39;;;;;;;0.10;0.10;;;;;;;22.66;100.00;101361.88;10417298;28;20053;-78
2023/07/19 01:31:41;;;;;;;0.10;0.10;;;;;;;22.32;100.00;101351.03;10435696;28;20377;-78
2023/07/19 01:36:43;;;;;;;0.17;0.10;;;;;;;22.42;100.00;101349.16;10425900;28;20045;-78
2023/07/19 01:41:44;;;;;;;0.00;0.00;;;;;;;22.47;100.00;101340.31;10436612;28;20073;-78
2023/07/19 01:46:46;;;;;;;0.30;0.20;;;;;;;22.32;100.00;101340.53;10438860;28;20053;-78
2023/07/19 01:51:48;;;;;;;0.43;0.03;;;;;;;22.70;100.00;101331.16;10450992;28;20041;-78
2023/07/19 01:56:49;;;;;;;0.00;0.00;;;;;;;22.44;100.00;101324.63;10437819;28;20084;-78
2023/07/19 02:01:53;;;;;;;0.00;0.00;;;;;;;22.47;100.00;101328.97;10442600;28;20033;-78
2023/07/19 02:06:55;;;;;;;0.20;0.17;;;;;;;22.46;100.00;101322.81;10440751;28;20045;-78
2023/07/19 02:11:57;;;;;;;0.00;0.00;;;;;;;22.25;100.00;101317.91;10442349;28;20040;-78
2023/07/19 02:16:58;;;;;;;0.10;0.10;;;;;;;22.70;100.00;101312.78;10436986;28;20052;-78
2023/07/19 02:22:00;;;;;;;0.60;0.13;;;;;;;22.65;100.00;101301.50;10450488;28;20501;-78
2023/07/19 02:27:02;;;;;;;0.20;0.08;;;;;;;22.57;100.00;101304.25;10444161;28;20144;-78
2023/07/19 02:32:04;;;;;;;0.10;0.00;;;;;;;22.74;100.00;101300.47;10422307;28;20423;-78
2023/07/19 02:37:05;;;;;;;0.15;0.10;;;;;;;22.50;100.00;101308.78;10437791;28;20049;-78
2023/07/19 02:42:07;;;;;;;0.25;0.13;;;;;;;22.61;100.00;101305.06;10448185;28;20037;-78
2023/07/19 02:47:09;;;;;;;0.10;0.00;;;;;;;22.40;100.00;101303.69;10436455;28;20037;-80
2023/07/19 02:52:11;;;;;;;0.10;0.08;;;;;;;22.10;100.00;101305.91;10436876;28;20049;-80
2023/07/19 02:57:12;;;;;;;0.00;0.00;;;;;;;21.28;100.00;101312.25;10437331;28;20439;-78
2023/07/19 03:02:14;;;;;;;0.00;0.00;;;;;;;21.54;100.00;101310.19;10432635;28;20062;-78
2023/07/19 03:07:16;;;;;;;0.00;0.00;;;;;;;22.04;100.00;101314.72;10456036;28;20622;-78
2023/07/19 03:12:17;;;;;;;0.20;0.00;;;;;;;22.19;100.00;101314.50;10444550;28;20481;-78
2023/07/19 03:17:19;;;;;;;0.00;0.00;;;;;;;21.77;100.00;101322.13;10455307;28;20419;-78
2023/07/19 03:22:20;;;;;;;0.00;0.00;;;;;;;22.01;100.00;101314.75;10447853;28;20063;-78
2023/07/19 03:27:23;;;;;;;0.00;0.00;;;;;;;21.95;100.00;101325.34;10413464;28;20048;-78
2023/07/19 03:32:25;;;;;;;0.28;0.20;;;;;;;21.93;100.00;101321.91;10437251;28;20403;-78
2023/07/19 03:37:51;;;;;;;0.00;0.00;;;;;;;22.08;100.00;101326.91;10440151;28;20076;-78
2023/07/19 03:42:53;;;;;;;0.00;0.00;;;;;;;21.75;100.00;101326.53;10420318;28;20084;-78
2023/07/19 03:47:55;;;;;;;0.00;0.00;;;;;;;21.93;100.00;101332.41;10451278;28;20045;-78
2023/07/19 03:53:09;;;;;;;0.00;0.00;;;;;;;21.56;100.00;101321.47;10428749;28;20140;-78
2023/07/19 03:58:10;;;;;;;0.00;0.00;;;;;;;21.69;100.00;101324.00;10437509;28;20080;-78
2023/07/19 04:03:12;;;;;;;0.10;0.10;;;;;;;21.68;100.00;101338.84;10417541;28;20046;-78
2023/07/19 04:08:15;;;;;;;0.00;0.00;;;;;;;21.61;100.00;101339.81;10450749;28;20076;-78
2023/07/19 04:13:16;;;;;;;0.00;0.00;;;;;;;21.60;100.00;101329.34;10445175;28;20037;-79
2023/07/19 04:18:18;;;;;;;0.28;0.05;;;;;;;21.96;100.00;101316.59;10449496;28;20492;-78
2023/07/19 04:23:21;;;;;;;0.10;0.05;;;;;;;21.59;100.00;101325.00;10421805;28;20045;-78
2023/07/19 04:28:22;;;;;;;0.00;0.00;;;;;;;21.74;100.00;101327.41;10449628;28;20053;-79
2023/07/19 04:33:24;;;;;;;0.05;0.05;;;;;;;22.43;100.00;101325.53;10427058;28;20050;-79
2023/07/19 04:38:26;;;;;;;0.17;0.10;;;;;;;22.42;100.00;101321.16;10434532;28;20072;-79
2023/07/19 04:43:28;;;;;;;0.28;0.20;;;;;;;22.31;100.00;101326.56;10422916;28;20466;-79
2023/07/19 04:48:30;;;;;;;0.00;0.00;;;;;;;22.90;100.00;101332.56;10431170;28;20103;-78
2023/07/19 04:53:32;;;;;;;0.20;0.20;;;;;;;23.09;100.00;101328.69;10432043;28;20069;-79
2023/07/19 04:58:34;;;;;;;0.00;0.00;;;;;;;22.87;100.00;101332.63;10438297;28;20731;-79
2023/07/19 05:03:39;;;;;;;0.15;0.15;;;;;;;23.51;100.00;101324.38;10438040;28;20459;-78
2023/07/19 05:08:42;;;;;;;0.00;0.00;;;;;;;22.99;100.00;101321.88;10442848;28;20045;-79
2023/07/19 05:13:43;;;;;;;0.00;0.00;;;;;;;23.41;100.00;101321.94;10449473;28;20405;-79
2023/07/19 05:18:45;;;;;;;0.15;0.15;;;;;;;23.65;100.00;101327.56;10442708;28;20827;-79
2023/07/19 05:23:48;;;;;;;0.00;0.00;;;;;;;23.94;100.00;101326.06;10415496;28;20744;-79
2023/07/19 05:28:50;;;;;;;0.00;0.00;;;;;;;24.47;100.00;101335.31;10444777;28;20701;-79
2023/07/19 05:33:51;;;;;;;0.00;0.00;;;;;;;23.99;100.00;101345.25;10435000;28;20057;-80
2023/07/19 05:38:53;;;;;;;0.00;0.00;;;;;;;24.68;100.00;101328.66;10446000;28;20052;-80
2023/07/19 05:43:55;;;;;;;0.08;0.03;;;;;;;25.05;100.00;101334.72;10406225;28;20485;-79
2023/07/19 05:49:11;;;;;;;0.10;0.10;;;;;;;24.89;100.00;101335.16;10432753;28;20127;-79
2023/07/19 05:54:14;;;;;;;0.10;0.10;;;;;;;24.76;100.00;101334.59;10425449;28;20145;-79
2023/07/19 05:59:15;;;;;;;0.00;0.00;;;;;;;24.46;100.00;101346.78;10432774;28;20041;-78
2023/07/19 06:04:17;;;;;;;0.00;0.00;;;;;;;24.49;100.00;101334.41;10449180;28;20072;-78
2023/07/19 06:09:19;;;;;;;0.88;0.85;;;;;;;25.05;100.00;101337.34;10424877;28;20045;-79
2023/07/19 06:14:24;;;;;;;0.63;0.28;;;;;;;25.17;100.00;101344.91;10436025;28;20132;-79
2023/07/19 06:19:25;;;;;;;0.10;0.10;;;;;;;24.96;100.00;101343.72;10442263;28;20041;-78
2023/07/19 06:24:27;;;;;;;0.20;0.10;;;;;;;25.06;100.00;101325.91;10446781;28;20048;-78
2023/07/19 06:29:28;;;;;;;0.00;0.00;;;;;;;24.80;100.00;101338.03;10449215;28;20045;-78
2023/07/19 06:34:30;;;;;;;0.30;0.30;;;;;;;25.28;100.00;101340.19;10452811;28;20112;-79
2023/07/19 06:39:32;;;;;;;0.00;0.00;;;;;;;24.82;100.00;101334.44;10439222;28;20455;-79
2023/07/19 06:44:34;;;;;;;0.85;0.73;;;;;;;24.67;100.00;101338.34;10455021;28;20056;-79
2023/07/19 06:49:35;;;;;;;0.90;0.75;;;;;;;25.23;100.00;101330.69;10449017;28;20088;-79
2023/07/19 06:54:37;;;;;;;0.00;0.00;;;;;;;25.75;100.00;101330.94;10436267;28;20045;-79
2023/07/19 06:59:38;;;;;;;0.08;0.08;;;;;;;25.28;100.00;101332.28;10434967;28;20044;-79
2023/07/19 07:04:40;;;;;;;0.20;0.20;;;;;;;26.05;100.00;101328.22;10443102;28;20475;-79
2023/07/19 07:09:42;;;;;;;0.08;0.08;;;;;;;26.04;100.00;101337.06;10434046;28;20049;-79
2023/07/19 07:14:43;;;;;;;0.03;0.03;;;;;;;26.74;100.00;101333.00;10431249;28;20059;-78
2023/07/19 07:19:45;;;;;;;0.10;0.10;;;;;;;26.58;100.00;101341.47;10426185;28;20057;-78
2023/07/19 07:24:47;;;;;;;0.10;0.10;;;;;;;27.44;100.00;101334.03;10443095;28;20052;-79
2023/07/19 07:29:48;;;;;;;0.10;0.10;;;;;;;27.43;100.00;101334.97;10441623;28;20350;-79
2023/07/19 07:34:50;;;;;;;0.00;0.00;;;;;;;26.57;100.00;101342.38;10439277;28;20041;-79
2023/07/19 07:39:51;;;;;;;0.00;0.00;;;;;;;28.42;100.00;101332.81;10436969;28;20047;-80
2023/07/19 07:44:53;;;;;;;0.10;0.10;;;;;;;28.22;100.00;101325.69;10453406;28;20068;-79
2023/07/19 07:49:56;;;;;;;0.00;0.00;;;;;;;27.15;100.00;101335.94;10434816;28;20573;-79
2023/07/19 07:54:57;;;;;;;0.00;0.00;;;;;;;27.30;100.00;101320.41;10443974;28;20049;-79
2023/07/19 08:00:00;;;;;;;0.10;0.10;;;;;;;28.47;100.00;101315.81;10427475;28;20041;-79
2023/07/19 08:05:05;;;;;;;0.17;0.10;;;;;;;27.54;100.00;101323.97;10444285;28;20047;-78
2023/07/19 08:10:07;;;;;;;0.00;0.00;;;;;;;28.86;100.00;101315.91;10437189;28;20416;-79
2023/07/19 08:15:09;;;;;;;0.10;0.05;;;;;;;28.68;100.00;101304.31;10445708;28;20135;-79
2023/07/19 08:20:11;;;;;;;0.03;0.03;;;;;;;28.46;100.00;101308.78;10427409;28;20047;-79
2023/07/19 08:25:16;;;;;;;3.40;0.50;;;;;;;28.09;100.00;101307.69;10420084;28;20086;-80
2023/07/19 08:30:28;;;;;;;0.15;0.15;;;;;;;28.99;100.00;101295.88;10443281;28;20046;-79
2023/07/19 08:35:33;;;;;;;0.10;0.10;;;;;;;28.67;100.00;101300.81;10429102;28;20061;-80
2023/07/19 08:40:38;;;;;;;0.00;0.00;;;;;;;30.01;100.00;101288.44;10433481;28;20041;-80
2023/07/19 08:45:40;;;;;;;0.17;0.10;;;;;;;29.64;100.00;101287.56;10435624;28;20402;-78
2023/07/19 08:50:44;;;;;;;0.20;0.20;;;;;;;29.80;100.00;101297.44;10430587;28;20120;-79
2023/07/19 08:55:47;;;;;;;0.30;0.10;;;;;;;30.11;100.00;101280.88;10417331;28;20055;-80
2023/07/19 09:00:50;;;;;;;0.20;0.15;;;;;;;29.86;100.00;101287.38;10430591;28;20041;-81
2023/07/19 09:05:53;;;;;;;0.40;0.22;;;;;;;29.41;100.00;101292.19;10424959;28;20492;-80
2023/07/19 09:10:55;;;;;;;0.10;0.10;;;;;;;29.26;100.00;101288.44;10447095;28;20044;-80
2023/07/19 09:15:57;;;;;;;0.00;0.00;;;;;;;28.12;100.00;101302.25;10427084;28;20140;-78
2023/07/19 09:20:59;;;;;;;0.13;0.13;;;;;;;27.93;100.00;101298.59;10433265;28;20076;-79
2023/07/19 09:26:03;;;;;;;0.20;0.20;;;;;;;28.25;100.00;101299.09;10418875;28;20155;-78
2023/07/19 09:31:05;;;;;;;0.35;0.35;;;;;;;28.38;100.00;101289.69;10425010;28;20492;-79
2023/07/19 09:36:17;;;;;;;0.30;0.30;;;;;;;28.26;100.00;101295.53;10438089;28;20060;-80
2023/07/19 09:41:19;;;;;;;0.20;0.20;;;;;;;28.27;100.00;101298.09;10414533;28;20587;-78
2023/07/19 09:46:21;;;;;;;0.25;0.20;;;;;;;28.31;100.00;101294.38;10448922;28;20542;-80
2023/07/19 09:51:24;;;;;;;0.52;0.10;;;;;;;28.80;100.00;101286.09;10433481;28;20458;-80
2023/07/19 09:56:26;;;;;;;0.35;0.20;;;;;;;28.33;100.00;101294.34;10434848;28;20056;-79
2023/07/19 10:01:28;;;;;;;4.20;0.47;;;;;;;28.11;100.00;101303.16;10451817;28;20051;-79
2023/07/19 10:06:30;;;;;;;0.00;0.00;;;;;;;28.50;100.00;101297.09;10448511;28;20132;-79
2023/07/19 10:11:32;;;;;;;3.22;1.20;;;;;;;28.97;100.00;101300.41;10433924;28;20354;-79
2023/07/19 10:16:34;;;;;;;0.30;0.17;;;;;;;29.26;100.00;101300.84;10451148;28;20045;-78
2023/07/19 10:21:36;;;;;;;3.83;0.52;;;;;;;30.65;100.00;101286.09;10448656;28;20049;-79
2023/07/19 10:26:38;;;;;;;0.08;0.08;;;;;;;28.65;100.00;101300.00;10424959;28;20060;-78
2023/07/19 10:31:40;;;;;;;0.00;0.00;;;;;;;29.85;100.00;101300.72;10447898;28;20063;-78
2023/07/19 10:36:47;;;;;;;0.25;0.10;;;;;;;29.60;100.00;101283.34;10448253;28;20045;-79
2023/07/19 10:41:50;;;;;;;0.05;0.05;;;;;;;29.62;100.00;101273.50;10450257;28;20052;-79
2023/07/19 10:46:55;;;;;;;0.28;0.28;;;;;;;29.89;100.00;101281.91;10443581;28;20136;-79
2023/07/19 10:51:58;;;;;;;0.05;0.05;;;;;;;29.49;100.00;101277.69;10445724;28;20045;-78
2023/07/19 10:57:01;;;;;;;1.25;0.13;;;;;;;29.21;99.40;101273.66;10449681;28;20407;-79
2023/07/19 11:02:03;;;;;;;0.85;0.10;;;;;;;30.11;100.00;101272.91;10432769;28;20052;-78
2023/07/19 11:07:05;;;;;;;4.90;0.80;;;;;;;30.97;98.89;101259.56;10447096;28;20508;-78
2023/07/19 11:12:09;;;;;;;0.20;0.20;;;;;;;30.76;97.65;101271.38;10437004;28;20052;-79
2023/07/19 11:17:24;;;;;;;0.57;0.30;;;;;;;29.55;98.31;101282.69;10445710;28;20037;-79
2023/07/19 11:22:27;;;;;;;1.23;0.30;;;;;;;29.29;99.25;101268.88;10446686;28;20071;-79
2023/07/19 11:27:34;;;;;;;0.10;0.10;;;;;;;28.42;100.00;101270.06;10438376;28;20045;-79
2023/07/19 11:32:35;;;;;;;0.00;0.00;;;;;;;27.89;100.00;101278.50;10433519;28;20053;-78
2023/07/19 11:37:38;;;;;;;0.00;0.00;;;;;;;26.82;100.00;101270.19;10442822;28;20060;-79
2023/07/19 11:42:50;;;;;;;0.40;0.20;;;;;;;28.47;100.00;101256.63;10436596;28;20049;-80
2023/07/19 11:47:59;;;;;;;0.70;0.20;;;;;;;28.34;100.00;101258.94;10445389;28;20083;-80
2023/07/19 11:53:03;;;;;;;0.52;0.32;;;;;;;29.52;100.00;101256.31;10460672;28;20049;-78
2023/07/19 11:58:05;;;;;;;0.08;0.08;;;;;;;28.35;100.00;101260.66;10446875;28;20075;-77
2023/07/19 12:03:06;;;;;;;0.10;0.10;;;;;;;29.24;100.00;101249.63;10443922;28;20041;-79
2023/07/19 12:08:09;;;;;;;0.08;0.08;;;;;;;28.77;100.00;101259.75;10438739;28;20059;-78
2023/07/19 12:13:11;;;;;;;0.30;0.20;;;;;;;29.15;100.00;101250.94;10442590;28;20044;-80
2023/07/19 12:18:13;;;;;;;0.10;0.10;;;;;;;28.79;100.00;101255.22;10444982;28;20103;-79
2023/07/19 12:23:16;;;;;;;0.08;0.08;;;;;;;30.27;100.00;101253.50;10445735;28;20111;-79
2023/07/19 12:28:22;;;;;;;0.20;0.20;;;;;;;29.78;100.00;101262.13;10440037;28;20045;-79
2023/07/19 12:33:25;;;;;;;0.40;0.15;;;;;;;28.77;100.00;101249.13;10446415;28;20076;-79
2023/07/19 12:38:28;;;;;;;0.10;0.10;;;;;;;27.38;100.00;101261.03;10441130;28;20052;-80
2023/07/19 12:43:30;;;;;;;0.00;0.00;;;;;;;27.12;100.00;101275.25;10449371;28;20045;-79
2023/07/19 12:48:31;;;;;;;0.20;0.20;;;;;;;26.53;100.00;101280.00;10444992;28;21736;-79
2023/07/19 12:53:34;;;;;;;0.00;0.00;;;;;;;27.31;100.00;101277.19;10434244;28;20052;-79
2023/07/19 12:58:39;;;;;;;0.10;0.10;;;;;;;27.26;100.00;101276.50;10425220;28;20056;-80
2023/07/19 13:03:41;;;;;;;0.47;0.10;;;;;;;27.52;100.00;101268.44;10423146;28;20045;-79
2023/07/19 13:08:44;;;;;;;0.00;0.00;;;;;;;27.64;100.00;101271.53;10409147;28;20084;-82
2023/07/19 13:13:46;;;;;;;0.10;0.10;;;;;;;27.33;100.00;101276.19;10439594;28;20417;-82
2023/07/19 13:18:48;;;;;;;0.50;0.50;;;;;;;27.29;100.00;101284.34;10441208;28;20088;-81
2023/07/19 13:23:50;;;;;;;0.10;0.10;;;;;;;27.29;100.00;101284.34;10420636;28;20124;-81
2023/07/19 13:28:55;;;;;;;0.10;0.00;;;;;;;27.20;100.00;101273.19;10421806;28;20052;-82
2023/07/19 13:33:58;;;;;;;0.10;0.10;;;;;;;28.28;100.00;101269.81;10432895;28;20567;-82
2023/07/19 13:39:00;;;;;;;0.00;0.00;;;;;;;28.18;100.00;101272.84;10436813;28;20431;-80
2023/07/19 13:44:02;;;;;;;0.10;0.00;;;;;;;27.70;100.00;101276.56;10415192;28;20044;-81
2023/07/19 13:49:04;;;;;;;0.10;0.10;;;;;;;27.31;100.00;101275.41;10428918;28;20519;-80
2023/07/19 13:54:06;;;;;;;0.30;0.10;;;;;;;27.49;100.00;101268.56;10426718;28;20041;-80
2023/07/19 13:59:07;;;;;;;0.20;0.10;;;;;;;27.41;100.00;101270.63;10440088;28;20064;-80
2023/07/19 14:04:10;;;;;;;0.57;0.38;;;;;;;27.86;100.00;101266.22;10441853;28;20040;-80
2023/07/19 14:09:12;;;;;;;0.35;0.20;;;;;;;27.62;100.00;101268.06;10433099;28;20069;-80
2023/07/19 14:14:30;;;;;;;0.10;0.10;;;;;;;27.88;100.00;101263.53;10421829;28;20046;-78
2023/07/19 14:19:38;;;;;;;0.00;0.00;;;;;;;28.67;100.00;101263.69;10413805;28;20107;-80
2023/07/19 14:24:44;;;;;;;0.17;0.10;;;;;;;28.08;100.00;101266.22;10425222;28;20051;-79
2023/07/19 14:29:46;;;;;;;0.10;0.10;;;;;;;28.56;100.00;101268.63;10428872;28;20053;-79
2023/07/19 14:34:49;;;;;;;0.00;0.00;;;;;;;28.42;100.00;101264.78;10431160;28;20047;-80
2023/07/19 14:39:52;;;;;;;0.10;0.10;;;;;;;27.61;100.00;101271.63;10446080;28;20048;-79
2023/07/19 14:44:54;;;;;;;0.25;0.10;;;;;;;27.57;100.00;101265.59;10443512;28;20500;-79
2023/07/19 14:49:56;;;;;;;0.20;0.17;;;;;;;27.78;100.00;101263.00;10455341;28;20041;-78
2023/07/19 14:55:00;;;;;;;0.45;0.20;;;;;;;27.74;100.00;101262.28;10447493;28;20155;-78
2023/07/19 15:00:04;;;;;;;0.20;0.17;;;;;;;27.24;100.00;101258.91;10449601;28;20051;-79
2023/07/19 15:05:15;;;;;;;0.20;0.20;;;;;;;27.73;100.00;101263.22;10447456;28;20142;-79
2023/07/19 15:10:17;;;;;;;0.00;0.00;;;;;;;28.01;100.00;101262.94;10442752;28;20041;-79
2023/07/19 15:15:20;;;;;;;0.35;0.25;;;;;;;27.83;100.00;101266.34;10450887;28;20045;-78
2023/07/19 15:20:22;;;;;;;0.20;0.20;;;;;;;27.17;100.00;101265.34;10437611;28;20647;-79
2023/07/19 15:25:24;;;;;;;0.00;0.00;;;;;;;27.58;100.00;101266.50;10414674;28;20060;-79
2023/07/19 15:30:26;;;;;;;0.43;0.28;;;;;;;26.69;100.00;101271.53;10443326;28;20377;-79
2023/07/19 15:35:29;;;;;;;0.00;0.00;;;;;;;26.70;100.00;101273.22;10447949;28;20550;-79
2023/07/19 15:40:31;;;;;;;0.20;0.15;;;;;;;28.10;100.00;101274.97;10442285;28;20163;-79
2023/07/19 15:45:33;;;;;;;0.60;0.10;;;;;;;29.05;100.00;101260.25;10446434;28;20049;-79
2023/07/19 15:50:39;;;;;;;0.00;0.00;;;;;;;28.16;100.00;101258.81;10446857;28;20041;-79
2023/07/19 15:55:41;;;;;;;0.10;0.10;;;;;;;29.01;100.00;101256.88;10431757;28;20488;-79
2023/07/19 16:00:43;;;;;;;0.00;0.00;;;;;;;27.45;100.00;101274.91;10459438;28;20052;-80
2023/07/19 16:05:46;;;;;;;0.00;0.00;;;;;;;27.99;100.00;101279.81;10454752;28;20056;-80
2023/07/19 16:10:48;;;;;;;0.60;0.38;;;;;;;27.54;100.00;101274.53;10448010;28;20049;-79
2023/07/19 16:15:50;;;;;;;0.00;0.00;;;;;;;28.52;100.00;101267.03;10450050;28;20075;-78
2023/07/19 16:20:53;;;;;;;0.30;0.10;;;;;;;27.82;100.00;101259.34;10419707;28;20064;-78
2023/07/19 16:25:56;;;;;;;0.00;0.00;;;;;;;28.46;100.00;101261.06;10431595;28;20603;-80
2023/07/19 16:30:59;;;;;;;0.00;0.00;;;;;;;27.83;100.00;101277.78;10438424;28;20045;-79
2023/07/19 16:36:01;;;;;;;0.08;0.08;;;;;;;27.31;100.00;101277.19;10437070;28;20040;-77
2023/07/19 16:41:03;;;;;;;0.08;0.08;;;;;;;27.57;100.00;101285.94;10439055;28;20041;-77
2023/07/19 16:46:05;;;;;;;1.60;1.17;;;;;;;27.50;100.00;101286.19;10417553;28;20050;-76
2023/07/19 16:51:07;;;;;;;0.43;0.30;;;;;;;27.14;100.00;101286.66;10435537;28;20044;-78
2023/07/19 16:56:09;;;;;;;0.10;0.10;;;;;;;27.63;100.00;101269.81;10423858;28;20048;-77
2023/07/19 17:01:12;;;;;;;0.00;0.00;;;;;;;27.52;100.00;101279.03;10437595;28;20045;-78
2023/07/19 17:06:15;;;;;;;0.00;0.00;;;;;;;27.26;100.00;101282.66;10440214;28;21093;-78
2023/07/19 17:11:18;;;;;;;0.00;0.00;;;;;;;27.00;100.00;101275.69;10397185;28;20041;-77
2023/07/19 17:16:21;;;;;;;0.00;0.00;;;;;;;27.01;100.00;101273.03;10428399;28;20365;-78
2023/07/19 17:21:23;;;;;;;0.00;0.00;;;;;;;26.44;100.00;101285.59;10441329;28;20033;-77
2023/07/19 17:26:25;;;;;;;0.88;0.47;;;;;;;26.15;100.00;101286.56;10437918;28;20087;-77
2023/07/19 17:31:27;;;;;;;0.10;0.10;;;;;;;26.98;100.00;101283.69;10434617;28;20059;-79
2023/07/19 17:36:29;;;;;;;0.00;0.00;;;;;;;26.27;100.00;101302.88;10432225;28;20037;-78
2023/07/19 17:41:31;;;;;;;0.00;0.00;;;;;;;26.70;100.00;101304.94;10425732;28;20067;-78
2023/07/19 17:46:33;;;;;;;0.00;0.00;;;;;;;26.86;100.00;101292.94;10430727;28;20067;-79
2023/07/19 17:51:35;;;;;;;1.10;0.20;;;;;;;25.87;100.00;101301.53;10439873;28;20634;-77
2023/07/19 17:56:36;;;;;;;0.10;0.10;;;;;;;25.83;100.00;101307.81;10433251;28;20563;-78
2023/07/19 18:01:39;;;;;;;0.85;0.20;;;;;;;25.94;100.00;101310.97;10423142;28;20055;-79
2023/07/19 18:06:41;;;;;;;0.00;0.00;;;;;;;26.13;100.00;101315.69;10442875;28;20527;-79
2023/07/19 18:11:43;;;;;;;0.00;0.00;;;;;;;25.54;100.00;101317.50;10450260;28;20091;-77
2023/07/19 18:16:45;;;;;;;0.20;0.05;;;;;;;25.43;100.00;101322.25;10427917;28;20045;-78
2023/07/19 18:21:47;;;;;;;0.10;0.10;;;;;;;25.45;100.00;101318.66;10445077;28;20040;-79
2023/07/19 18:27:04;;;;;;;0.00;0.00;;;;;;;25.28;100.00;101319.09;10431651;28;20049;-80
2023/07/19 18:32:06;;;;;;;0.00;0.00;;;;;;;25.84;100.00;101314.81;10442223;28;20094;-75
2023/07/19 18:37:08;;;;;;;0.00;0.00;;;;;;;26.26;100.00;101321.44;10438843;28;20402;-78
2023/07/19 18:42:10;;;;;;;0.00;0.00;;;;;;;25.89;100.00;101327.88;10440968;28;20040;-78
2023/07/19 18:47:12;;;;;;;0.10;0.10;;;;;;;26.07;100.00;101327.28;10420039;28;20076;-77
2023/07/19 18:52:14;;;;;;;0.05;0.03;;;;;;;25.94;100.00;101336.50;10430809;28;20035;-79
2023/07/19 18:57:16;;;;;;;0.00;0.00;;;;;;;26.37;100.00;101340.41;10454502;28;20073;-77
2023/07/19 19:02:18;;;;;;;0.17;0.00;;;;;;;26.33;100.00;101337.91;10429564;28;20052;-77
2023/07/19 19:07:20;;;;;;;0.00;0.00;;;;;;;26.17;100.00;101337.56;10420267;28;20037;-76
2023/07/19 19:12:22;;;;;;;0.10;0.00;;;;;;;26.67;100.00;101347.34;10442741;28;20037;-76
2023/07/19 19:17:24;;;;;;;0.00;0.00;;;;;;;26.50;100.00;101346.16;10441070;28;20151;-76
2023/07/19 19:22:27;;;;;;;0.32;0.20;;;;;;;26.65;100.00;101343.88;10432734;28;20044;-78
2023/07/19 19:27:31;;;;;;;0.20;0.10;;;;;;;26.55;100.00;101349.47;10444492;28;20052;-75
2023/07/19 19:32:34;;;;;;;0.00;0.00;;;;;;;26.65;100.00;101351.81;10438677;28;20127;-78
2023/07/19 19:37:36;;;;;;;0.00;0.00;;;;;;;26.53;100.00;101351.34;10449607;28;20053;-79
2023/07/19 19:42:39;;;;;;;0.00;0.00;;;;;;;26.64;100.00;101352.72;10449840;28;20044;-78
2023/07/19 19:47:45;;;;;;;0.38;0.10;;;;;;;26.78;100.00;101342.56;10432062;28;20046;-78
2023/07/19 19:52:47;;;;;;;0.00;0.00;;;;;;;26.84;100.00;101339.72;10431703;28;20133;-78
2023/07/19 19:58:08;;;;;;;0.00;0.00;;;;;;;26.77;100.00;101348.75;10428379;28;20488;-78
2023/07/19 20:03:10;;;;;;;0.00;0.00;;;;;;;26.68;100.00;101333.22;10450342;28;20490;-78
2023/07/19 20:08:15;;;;;;;0.25;0.05;;;;;;;26.67;100.00;101353.47;10447026;28;20036;-78
2023/07/19 20:13:18;;;;;;;0.00;0.00;;;;;;;26.00;100.00;101349.50;10427092;28;20131;-78
2023/07/19 20:18:21;;;;;;;0.00;0.00;;;;;;;25.49;100.00;101353.72;10439347;28;20056;-78
2023/07/19 20:23:23;;;;;;;0.10;0.10;;;;;;;25.50;100.00;101353.66;10441602;28;20534;-78
2023/07/19 20:28:27;;;;;;;0.00;0.00;;;;;;;25.58;100.00;101360.47;10434141;28;20056;-78
2023/07/19 20:33:29;;;;;;;0.00;0.00;;;;;;;26.14;100.00;101372.84;10440556;28;20043;-78
2023/07/19 20:38:31;;;;;;;0.00;0.00;;;;;;;26.19;100.00;101363.00;10420395;28;20048;-78
2023/07/19 20:43:36;;;;;;;0.00;0.00;;;;;;;26.16;100.00;101367.53;10422988;28;20067;-78
2023/07/19 20:48:38;;;;;;;0.00;0.00;;;;;;;26.07;100.00;101364.25;10450258;28;20514;-78
2023/07/19 20:53:41;;;;;;;0.00;0.00;;;;;;;25.87;100.00;101361.34;10417372;28;20067;-78
2023/07/19 20:58:43;;;;;;;0.10;0.00;;;;;;;25.95;100.00;101360.19;10442855;28;20127;-77
2023/07/19 21:03:45;;;;;;;0.00;0.00;;;;;;;25.98;100.00;101362.75;10454280;28;20037;-77
2023/07/19 21:08:54;;;;;;;0.00;0.00;;;;;;;25.96;100.00;101367.22;10436043;28;20139;-77
2023/07/19 21:13:56;;;;;;;0.45;0.10;;;;;;;25.96;100.00;101366.34;10443937;28;20488;-77
2023/07/19 21:18:58;;;;;;;0.00;0.00;;;;;;;25.49;100.00;101382.72;10452750;28;20049;-77
2023/07/19 21:24:00;;;;;;;0.00;0.00;;;;;;;25.56;100.00;101379.00;10452526;28;20041;-78
2023/07/19 21:29:05;;;;;;;0.00;0.00;;;;;;;25.54;100.00;101374.69;10445542;28;20059;-77
2023/07/19 21:34:07;;;;;;;0.00;0.00;;;;;;;25.30;100.00;101377.94;10438874;28;20416;-77
2023/07/19 21:39:09;;;;;;;0.00;0.00;;;;;;;25.50;100.00;101379.19;10442103;28;20074;-77
2023/07/19 21:44:12;;;;;;;0.00;0.00;;;;;;;25.28;100.00;101378.88;10438665;28;20052;-77
2023/07/19 21:49:14;;;;;;;0.38;0.15;;;;;;;25.19;100.00;101377.38;10434445;28;20041;-77
2023/07/19 21:54:17;;;;;;;0.05;0.05;;;;;;;25.08;100.00;101376.78;10453586;28;20567;-77
2023/07/19 21:59:19;;;;;;;0.17;0.10;;;;;;;25.26;100.00;101371.03;10452921;28;20650;-77
2023/07/19 22:04:21;;;;;;;0.00;0.00;;;;;;;25.22;100.00;101365.88;10434761;28;20041;-77
2023/07/19 22:09:23;;;;;;;0.00;0.00;;;;;;;24.78;100.00;101379.34;10449531;28;20508;-78
2023/07/19 22:14:25;;;;;;;0.13;0.13;;;;;;;24.36;100.00;101378.59;10436561;28;20037;-78
2023/07/19 22:19:29;;;;;;;0.00;0.00;;;;;;;24.56;100.00;101385.13;10451317;28;20049;-78
2023/07/19 22:24:30;;;;;;;0.47;0.28;;;;;;;24.64;100.00;101383.19;10450748;28;20072;-78
2023/07/19 22:29:32;;;;;;;1.40;0.20;;;;;;;23.99;100.00;101374.22;10447625;28;20044;-78
2023/07/19 22:34:34;;;;;;;0.00;0.00;;;;;;;24.25;100.00;101377.97;10443820;28;20047;-78
2023/07/19 22:39:35;;;;;;;0.05;0.05;;;;;;;24.20;100.00;101371.97;10445308;28;20055;-78
2023/07/19 22:44:37;;;;;;;0.00;0.00;;;;;;;23.67;100.00;101377.53;10438741;28;20060;-77
2023/07/19 22:49:38;;;;;;;0.00;0.00;;;;;;;23.73;100.00;101383.50;10451009;28;20052;-77
2023/07/19 22:54:40;;;;;;;0.35;0.00;;;;;;;23.90;100.00;101384.91;10455827;28;20048;-77